Current Weather

Benson

Benson, United Kingdom (EGUB)

Report from: Tuesday, July 16, 2024 4:50 PM BST
Current time: Tuesday, July 16, 2024 5:30 PM BST

Nearby weather – Weather history – Daily summaries
Weather forecast

Present weatherLight rain showers
Temperature21.0°C (69.8°F)
Dew point16.0°C (60.8°F)
Winds 6 kts (3.1 m/s, 6.9 mph) Northwest (310°)
Visibility6.2 mi. (10 km)
Clouds Few clouds 2,300 ft. (701 m)
Scattered clouds 2,300 ft. (701 m)
Altimeter29.88 in.Hg (1012 mB)
Relative humidity73 %
Density altitude993 ft. (303 m)
Remarks Temporarily
Flight conditions Visual Meteorological Conditions
Raw dataEGUB 161550Z 31006KT 9999 FEW023 21/16 Q1012 TEMPO -SHRA SCT023 RMK BLU TEMPO WHT
An error has occurred. This application may no longer respond until reloaded. Reload 🗙